Terminal Aerodrome Forecast
Issued by NWS Shreveport, LA

Home | Current Version | Previous Version | Text Only | Print | Product List | Glossary On
Versions: 1 2 3 4 5 6 7 8 9 10 11 12 13 14 15
000
FTUS44 KSHV 300132 AAA
TAFMLU
TAF AMD
KMLU 300132Z 3002/3024 VRB03KT P6SM SCT060 BKN140 OVC250
      TEMPO 3008/3012 3SM BR
     FM301200 VRB06KT P6SM VCTS SCT015 BKN040CB BKN100
      TEMPO 3012/3016 3SM -TSRA BR BKN030CB
     FM301600 23008KT P6SM SCT040 SCT130 BKN250=

USA.gov is the U.S. government's official web portal to all federal, state and local government web resources and services.